x

West Sea Otter (46204) Wave Buoy

2:00pm - Wed 1st Apr 2015 All times are PDT. -7 hours from GMT.

  • Sig Wave height 7.9ft
  • Peak Period 12s
  • Wind
    11mph, 13mph gusts
  • Sea Temp 50°f
  • Air Temp 48°f
  • Sea Pressure 1026mb
  • West Sea Otter
  • West Sea Otter

More Historic Weather Station data

Upgrade to MSW Pro to gain access to the past 30 days of data for over 8000 Wavebouys and Weather Stations around the globe.

Join Pro

Comparision Forecast

View Surf forecast
   
Wed 04/01 2:00pm 8ft 12s 11 13 mph 1026mb 50f 48f
1:00pm 8ft 11s 11 13 mph 1025.7mb 49f 48f
12:00pm 8ft 11s 11 16 mph 1025.2mb 49f 48f
11:00am 8ft 12s 11 16 mph 1024.8mb 49f 48f
9:00am 9ft 12s 9 13 mph 1023.6mb 48f 48f
8:00am 9ft 11s 9 11 mph 1023mb 48f 47f
7:00am 9.5ft 14s 11 13 mph 1022.6mb 48f 47f
6:00am 9ft 12s 13 18 mph 1021.9mb 48f 47f
5:00am 8.5ft 14s 13 20 mph 1021.4mb 48f 47f
4:00am 9ft 12s 9 11 mph 1020.7mb 48f 47f
3:00am 9ft 12s 13 16 mph 1020.2mb 48f 48f
2:00am 9ft 13s 9 16 mph 1020mb 49f 47f
1:00am 8.5ft 12s 13 20 mph 1019.7mb 49f 45f
12:00am 8ft 12s 11 13 mph 1019.1mb 49f 47f
Tue 03/31 11:00pm  -   -  4
mph
1018.9mb - 44f
10:00pm 8ft 12s 11 16 mph 1018.5mb 49f 47f
9:00pm 8ft 12s 20 25 mph 1018.1mb 49f 47f
8:00pm 8ft 12s 11 13 mph 1018mb 49f 47f
7:00pm 8ft 14s 11 13 mph 1017.8mb 49f 46f
6:00pm 8.5ft 14s 11 16 mph 1017.7mb 49f 48f
5:00pm 8ft 14s 16 22 mph 1017.6mb 49f 47f
3:00pm 8ft 13s 2 4 mph 1017.3mb 49f 45f
2:00pm 7.5ft 10s 13 20 mph 1017.1mb 50f 43f
1:00pm 7.5ft 14s 13 18 mph 1016.2mb 49f 46f
12:00pm 7.5ft 12s 11 16 mph 1015.7mb 49f 45f
11:00am 8.5ft 12s 16 18 mph 1015.1mb 49f 45f
9:00am 8.5ft 12s 7 11 mph 1013.9mb 49f 45f
8:00am 9ft 12s 9 11 mph 1013.2mb 49f 49f
7:00am 9.5ft 14s 9 11 mph 1013.1mb 49f 48f
6:00am 10ft 11s 9 13 mph 1012.7mb 49f 48f
5:00am 10ft 12s 9 13 mph 1012.4mb 49f 48f
4:00am 10.5ft 9s 11 16 mph 1012mb 49f 48f
3:00am 10ft 9s 13 25 mph 1011.6mb 49f 48f
2:00am 11ft 10s 13 18 mph 1011.1mb 49f 48f
1:00am 10ft 11s 13 16 mph 1010.7mb 49f 48f
12:00am 10ft 11s 13 16 mph 1010.6mb 49f 48f
Mon 03/30 11:00pm 10.5ft 13s 11 13 mph 1010.8mb 49f 48f
10:00pm 10.5ft 12s 9 13 mph 1010.7mb 49f 47f
9:00pm 11ft 10s 16 20 mph 1010.5mb 49f 48f
8:00pm 11ft 10s 13 18 mph 1010.3mb 49f 48f
7:00pm 12ft 8s 18 22 mph 1009.9mb 49f 48f
6:00pm 12ft 9s 18 22 mph 1010mb 50f 49f
5:00pm 12ft 10s 13 18 mph 1010mb 49f 49f
4:00pm 11.5ft 12s 18 22 mph 1010mb 49f 49f
3:00pm 11.5ft 9s 18 22 mph 1009.4mb 49f 50f
1:00pm 11ft 10s 22 29 mph 1008.6mb 50f 49f
12:00pm 12ft 12s 20 27 mph 1008.1mb 50f 50f
11:00am 11ft 8s 25 29 mph 1007.3mb 49f 49f
10:00am 12ft 9s 22 27 mph 1006.3mb 49f 49f
8:00am 13.5ft 8s 29 36 mph 1004.6mb 49f 51f
6:00am 13ft 12s 31 43 mph 1003.4mb 49f 50f
5:00am 11ft 12s 34 40 mph 1003.8mb 49f 50f
3:00am 10.5ft 13s 34 43 mph 1007.2mb 50f 50f
2:00am 10ft 12s 31 40 mph 1008.8mb 50f 50f
1:00am 10ft 13s 25 29 mph 1010.7mb 50f 50f
12:00am 11ft 12s 13 16 mph 1012.3mb 50f 50f
Sun 03/29 11:00pm 11ft 13s 11 16 mph 1013.8mb 50f 50f
10:00pm 9ft 13s 11 16 mph 1015.2mb 50f 50f
9:00pm 11.5ft 12s 13 16 mph 1016mb 50f 51f
8:00pm 11ft 12s 13 16 mph 1016.7mb 50f 50f
7:00pm 11.5ft 13s 9 11 mph 1017.4mb 50f 50f
6:00pm 11ft 14s 11 13 mph 1018.4mb 50f 50f
5:00pm 10.5ft 11s 11 13 mph 1018.9mb 50f 51f
4:00pm 10ft 14s 11 13 mph 1019.1mb 50f 51f
3:00pm 10ft 11s 9 11 mph 1019.4mb 50f 51f
2:00pm 10ft 11s 11 16 mph 1019.1mb 50f 51f
1:00pm 11ft 12s 11 16 mph 1018.7mb 50f 51f
12:00pm 10.5ft 11s 11 13 mph 1018.1mb 50f 51f
11:00am 11ft 11s 13 18 mph 1017.9mb 49f 51f
9:00am 10ft 11s 16 20 mph 1016.1mb 49f 50f
8:00am 11ft 11s 18 20 mph 1015.5mb 49f 50f
7:00am 10.5ft 11s 16 20 mph 1014.9mb 49f 50f
6:00am 11ft 11s 18 20 mph 1014.4mb 49f 50f
5:00am 11ft 10s 20 25 mph 1013.8mb 49f 50f
4:00am 11ft 10s 18 20 mph 1013.3mb 49f 49f
3:00am 11ft 11s 16 20 mph 1012.6mb 49f 49f
2:00am 11.5ft 11s 16 20 mph 1012.3mb 49f 50f
1:00am  -   -  18
mph
- - 50f
12:00am 11ft 11s 20 27 mph 1012.5mb 49f 50f
Sat 03/28 11:00pm 12ft 11s 18 25 mph 1012.9mb 49f 49f